createdAt,value
2023-01-25T00:03:38.955Z,8.43
2023-01-25T00:09:40.730Z,7.63
2023-01-25T00:15:42.503Z,8.30
2023-01-25T00:21:44.259Z,7.82
2023-01-25T00:27:46.064Z,6.75
2023-01-25T00:34:18.182Z,7.07
2023-01-25T00:40:19.964Z,7.85
2023-01-25T00:46:22.633Z,7.32
2023-01-25T00:52:24.558Z,7.90
2023-01-25T00:58:26.874Z,7.30
2023-01-25T01:04:29.986Z,7.72
2023-01-25T01:10:31.912Z,7.50
2023-01-25T01:16:33.971Z,7.45
2023-01-25T01:22:35.903Z,7.50
2023-01-25T01:28:39.608Z,6.85
2023-01-25T01:34:41.647Z,7.22
2023-01-25T01:40:47.971Z,6.43
2023-01-25T01:46:58.321Z,5.40
2023-01-25T01:53:03.368Z,6.90
2023-01-25T01:59:06.415Z,6.57
2023-01-25T02:05:17.596Z,6.95
2023-01-25T02:11:21.257Z,6.10
2023-01-25T02:17:33.696Z,5.82
2023-01-25T02:23:41.126Z,5.65
2023-01-25T02:29:45.091Z,5.78
2023-01-25T02:35:52.940Z,5.75
2023-01-25T02:41:55.064Z,6.28
2023-01-25T02:48:00.337Z,8.70
2023-01-25T02:54:08.751Z,10.77
2023-01-25T03:00:11.681Z,10.98
2023-01-25T03:06:13.920Z,12.35
2023-01-25T03:12:17.824Z,16.35
2023-01-25T03:18:20.639Z,14.52
2023-01-25T03:24:22.676Z,17.75
2023-01-25T03:30:24.695Z,17.45
2023-01-25T03:36:26.682Z,18.45
2023-01-25T03:42:28.622Z,16.95
2023-01-25T03:48:32.807Z,19.00
2023-01-25T03:54:34.927Z,18.25
2023-01-25T04:00:37.433Z,17.70
2023-01-25T04:06:52.816Z,19.60
2023-01-25T04:12:59.434Z,17.55
2023-01-25T04:19:01.443Z,17.98
2023-01-25T04:25:05.462Z,16.98
2023-01-25T04:31:08.205Z,18.42
2023-01-25T04:37:17.637Z,18.05
2023-01-25T04:43:32.722Z,18.42
2023-01-25T04:49:40.921Z,17.38
2023-01-25T04:55:47.806Z,15.57
2023-01-25T05:01:50.412Z,16.20
2023-01-25T05:07:52.277Z,16.58
2023-01-25T05:13:54.883Z,16.27
2023-01-25T05:20:04.695Z,16.13
2023-01-25T05:26:26.815Z,16.67
2023-01-25T05:32:28.801Z,16.25
2023-01-25T05:38:31.168Z,16.35
2023-01-25T05:44:34.032Z,15.85
2023-01-25T05:50:35.964Z,15.80
2023-01-25T05:56:50.716Z,16.20
2023-01-25T06:02:53.372Z,15.98
2023-01-25T06:08:59.317Z,17.50
2023-01-25T06:15:01.197Z,16.58
2023-01-25T06:21:04.792Z,15.48
2023-01-25T06:27:12.722Z,17.80
2023-01-25T06:33:14.592Z,17.05
2023-01-25T06:39:16.424Z,16.13
2023-01-25T06:45:18.624Z,15.43
2023-01-25T06:51:20.502Z,16.63
2023-01-25T06:57:22.291Z,15.32
2023-01-25T07:03:24.076Z,17.35
2023-01-25T07:09:25.824Z,16.52
2023-01-25T07:15:28.649Z,16.55
2023-01-25T07:21:30.417Z,16.63
2023-01-25T07:27:35.281Z,16.25
2023-01-25T07:33:37.079Z,16.35
2023-01-25T07:39:40.762Z,15.88
2023-01-25T07:45:48.597Z,16.70
2023-01-25T07:51:50.345Z,17.85
2023-01-25T07:57:55.670Z,14.75
2023-01-25T08:03:57.578Z,14.80
2023-01-25T08:09:59.389Z,15.73
2023-01-25T08:16:01.196Z,15.38
2023-01-25T08:22:02.999Z,14.07
2023-01-25T08:28:05.193Z,15.05
2023-01-25T08:34:07.596Z,15.27
2023-01-25T08:40:10.592Z,15.80
2023-01-25T08:46:15.276Z,16.20
2023-01-25T08:52:17.132Z,15.20
2023-01-25T08:58:21.733Z,15.38
2023-01-25T09:04:28.267Z,16.77
2023-01-25T09:10:30.150Z,18.20
2023-01-25T09:16:32.161Z,18.10
2023-01-25T09:22:33.946Z,19.67
2023-01-25T09:28:35.740Z,17.42
2023-01-25T09:34:37.502Z,19.40
2023-01-25T09:40:41.394Z,18.45
2023-01-25T09:46:44.070Z,18.35
2023-01-25T09:52:59.692Z,20.05
2023-01-25T09:59:11.580Z,18.30
2023-01-25T10:05:22.677Z,16.92
2023-01-25T10:11:32.579Z,18.27
2023-01-25T10:17:38.531Z,16.40
2023-01-25T10:24:05.788Z,15.95
2023-01-25T10:30:26.780Z,15.02
2023-01-25T10:36:31.519Z,13.05
2023-01-25T10:43:05.504Z,14.93
2023-01-25T10:49:48.395Z,13.68
2023-01-25T10:56:04.508Z,13.40
2023-01-25T11:02:35.765Z,14.43
2023-01-25T11:08:39.790Z,16.25
2023-01-25T11:14:41.562Z,14.35
2023-01-25T11:20:43.352Z,14.77
2023-01-25T11:26:45.966Z,12.98
2023-01-25T11:32:47.789Z,12.85
2023-01-25T11:39:23.445Z,13.38
2023-01-25T11:45:46.212Z,10.40
2023-01-25T11:51:58.670Z,9.52
2023-01-25T11:58:30.906Z,9.15
2023-01-25T12:04:45.560Z,8.75
2023-01-25T12:11:08.819Z,8.60
2023-01-25T12:17:48.341Z,10.15
2023-01-25T12:23:59.066Z,9.70
2023-01-25T12:30:13.034Z,11.57
2023-01-25T12:36:35.597Z,11.57
2023-01-25T12:42:53.880Z,11.27
2023-01-25T12:49:04.611Z,11.70
2023-01-25T12:55:13.572Z,13.68
2023-01-25T13:01:49.301Z,14.43
2023-01-25T13:08:30.772Z,13.95
2023-01-25T13:14:41.284Z,14.43
2023-01-25T13:20:43.036Z,13.13
2023-01-25T13:26:54.122Z,13.07
2023-01-25T13:32:59.692Z,13.60
2023-01-25T13:39:03.643Z,13.82
2023-01-25T13:45:18.810Z,13.50
2023-01-25T13:51:21.935Z,13.88
2023-01-25T13:57:26.972Z,14.85
2023-01-25T14:03:36.076Z,13.80
2023-01-25T14:09:40.603Z,13.65
2023-01-25T14:15:53.351Z,11.60
2023-01-25T14:22:28.117Z,11.88
2023-01-25T14:28:30.824Z,12.05
2023-01-25T14:34:32.624Z,12.80
2023-01-25T14:40:34.474Z,13.95
2023-01-25T14:46:38.066Z,13.63
2023-01-25T14:52:40.931Z,13.35
2023-01-25T14:58:43.181Z,13.10
2023-01-25T15:05:20.053Z,13.48
2023-01-25T15:11:49.767Z,14.68
2023-01-25T15:17:52.199Z,14.10
2023-01-25T15:23:55.715Z,13.25
2023-01-25T15:29:57.695Z,11.20
2023-01-25T15:35:59.664Z,11.82
2023-01-25T15:42:01.529Z,12.30
2023-01-25T15:48:03.312Z,11.90
2023-01-25T15:54:07.315Z,12.23
2023-01-25T16:00:20.624Z,12.98
2023-01-25T16:06:53.244Z,13.18
2023-01-25T16:12:55.075Z,13.88
2023-01-25T16:18:56.923Z,13.57
2023-01-25T16:24:58.769Z,14.30
2023-01-25T16:31:00.679Z,14.05
2023-01-25T16:37:02.569Z,16.80
2023-01-25T16:43:04.586Z,17.27
2023-01-25T16:49:09.145Z,17.02
2023-01-25T16:55:12.748Z,19.08
2023-01-25T17:01:16.101Z,16.05
2023-01-25T17:07:17.952Z,16.67
2023-01-25T17:13:19.777Z,18.30
2023-01-25T17:19:21.646Z,19.52
2023-01-25T17:25:24.047Z,18.67
2023-01-25T17:31:32.274Z,19.63
2023-01-25T17:37:34.142Z,20.30
2023-01-25T17:43:36.790Z,20.80
2023-01-25T17:49:38.609Z,19.15
2023-01-25T17:55:40.364Z,19.88
2023-01-25T18:01:44.880Z,19.13
2023-01-25T18:07:46.907Z,20.60
2023-01-25T18:13:56.973Z,22.20
2023-01-25T18:19:59.120Z,18.83
2023-01-25T18:26:01.100Z,18.77
2023-01-25T18:32:03.538Z,23.38
2023-01-25T18:38:05.409Z,22.10
2023-01-25T18:44:07.295Z,21.83
2023-01-25T18:50:11.426Z,20.48
2023-01-25T18:56:19.070Z,17.50
2023-01-25T19:02:22.914Z,17.67
2023-01-25T19:08:25.801Z,18.30
2023-01-25T19:14:27.649Z,16.73
2023-01-25T19:20:30.239Z,15.40
2023-01-25T19:26:32.039Z,16.85
2023-01-25T19:32:33.848Z,18.50
2023-01-25T19:38:40.135Z,16.95
2023-01-25T19:44:41.920Z,16.90
2023-01-25T19:50:43.709Z,15.48
2023-01-25T19:56:48.068Z,15.00
2023-01-25T20:02:49.947Z,14.52
2023-01-25T20:08:52.275Z,15.57
2023-01-25T20:14:54.328Z,14.52
2023-01-25T20:21:01.797Z,15.52
2023-01-25T20:27:04.580Z,14.80
2023-01-25T20:33:16.547Z,16.23
2023-01-25T20:39:30.657Z,15.38
2023-01-25T20:45:32.539Z,18.83
2023-01-25T20:51:35.205Z,14.27
2023-01-25T20:57:39.208Z,17.02
2023-01-25T21:03:43.150Z,16.17
2023-01-25T21:09:44.987Z,15.20
2023-01-25T21:16:12.703Z,14.23
2023-01-25T21:22:14.605Z,13.75
2023-01-25T21:28:16.392Z,14.27
2023-01-25T21:34:18.478Z,12.90
2023-01-25T21:40:20.560Z,13.20
2023-01-25T21:46:26.986Z,14.77
2023-01-25T21:52:28.828Z,14.20
2023-01-25T21:58:30.728Z,14.43
2023-01-25T22:04:36.167Z,13.70
2023-01-25T22:10:38.043Z,14.77
2023-01-25T22:16:39.864Z,13.48
2023-01-25T22:22:41.720Z,13.13
2023-01-25T22:28:45.903Z,13.77
2023-01-25T22:34:47.737Z,12.68
2023-01-25T22:41:10.360Z,11.05
2023-01-25T22:47:12.200Z,10.35
2023-01-25T22:53:14.218Z,9.65
2023-01-25T22:59:18.858Z,9.95
2023-01-25T23:05:20.906Z,9.40
2023-01-25T23:11:24.291Z,9.75
2023-01-25T23:17:45.393Z,8.30
2023-01-25T23:23:47.639Z,10.07
2023-01-25T23:29:49.965Z,8.40
2023-01-25T23:35:51.731Z,7.43
2023-01-25T23:41:53.475Z,8.00
2023-01-25T23:47:55.248Z,7.53
2023-01-25T23:53:58.358Z,6.88
